createdAt,value
2022-09-23T00:10:05.821Z,20.30
2022-09-23T00:20:28.396Z,27.75
2022-09-23T00:30:51.249Z,18.48
2022-09-23T00:41:13.235Z,17.85
2022-09-23T00:51:39.386Z,16.95
2022-09-23T01:02:03.177Z,17.83
2022-09-23T01:12:44.039Z,14.02
2022-09-23T01:23:22.402Z,20.95
2022-09-23T01:33:53.288Z,19.23
2022-09-23T01:44:22.918Z,13.32
2022-09-23T01:54:52.155Z,21.80
2022-09-23T02:05:18.725Z,20.30
2022-09-23T02:15:47.521Z,13.90
2022-09-23T02:26:16.974Z,18.00
2022-09-23T02:36:47.009Z,14.10
2022-09-23T02:47:08.857Z,19.92
2022-09-23T02:57:31.681Z,22.23
2022-09-23T03:08:08.660Z,18.00
2022-09-23T03:18:37.380Z,21.45
2022-09-23T03:29:00.610Z,19.88
2022-09-23T03:39:32.215Z,15.60
2022-09-23T03:49:54.475Z,13.48
2022-09-23T04:00:17.944Z,15.70
2022-09-23T04:10:41.912Z,15.25
2022-09-23T04:21:05.069Z,17.63
2022-09-23T04:31:26.566Z,19.58
2022-09-23T04:41:49.770Z,17.23
2022-09-23T04:52:11.922Z,13.02
2022-09-23T05:02:35.655Z,15.27
2022-09-23T05:12:58.889Z,18.23
2022-09-23T05:23:22.246Z,19.17
2022-09-23T05:33:45.941Z,14.73
2022-09-23T05:44:08.689Z,22.23
2022-09-23T05:54:30.167Z,21.38
2022-09-23T06:04:53.099Z,15.32
2022-09-23T06:15:14.710Z,15.38
2022-09-23T06:25:39.410Z,15.77
2022-09-23T06:36:01.857Z,19.45
2022-09-23T06:46:25.206Z,14.48
2022-09-23T06:56:47.520Z,11.23
2022-09-23T07:07:11.479Z,14.00
2022-09-23T07:17:33.561Z,16.10
2022-09-23T07:27:58.323Z,12.68
2022-09-23T07:38:19.766Z,11.00
2022-09-23T07:48:42.978Z,8.38
2022-09-23T07:59:04.695Z,12.50
2022-09-23T08:09:29.712Z,8.40
2022-09-23T08:19:50.874Z,9.90
2022-09-23T08:30:14.174Z,7.05
2022-09-23T08:40:37.385Z,9.30
2022-09-23T08:51:06.505Z,8.05
2022-09-23T09:01:34.974Z,6.25
2022-09-23T09:12:04.023Z,5.20
2022-09-23T09:22:46.290Z,5.57
2022-09-23T09:33:16.008Z,8.23
2022-09-23T09:43:38.864Z,6.30
2022-09-23T09:54:22.961Z,5.65
2022-09-23T10:04:44.928Z,4.90
2022-09-23T10:15:28.601Z,4.80
2022-09-23T10:25:58.358Z,6.40
2022-09-23T10:36:21.720Z,3.95
2022-09-23T10:46:54.580Z,4.03
2022-09-23T10:57:41.579Z,4.93
2022-09-23T11:08:13.002Z,5.72
2022-09-23T11:18:51.453Z,5.13
2022-09-23T11:29:36.735Z,4.90
2022-09-23T11:40:03.524Z,4.30
2022-09-23T11:50:30.708Z,9.38
2022-09-23T12:01:01.540Z,5.15
2022-09-23T12:11:31.079Z,4.68
2022-09-23T12:22:15.187Z,6.53
2022-09-23T12:32:36.635Z,5.63
2022-09-23T12:43:01.153Z,7.07
2022-09-23T12:53:56.951Z,4.60
2022-09-23T13:05:02.667Z,4.13
2022-09-23T13:15:30.455Z,8.25
2022-09-23T13:25:56.688Z,4.25
2022-09-23T13:36:19.679Z,6.85
2022-09-23T13:46:46.725Z,6.63
2022-09-23T13:57:25.530Z,5.00
2022-09-23T14:07:48.859Z,5.32
2022-09-23T14:18:14.400Z,5.10
2022-09-23T14:28:37.308Z,4.03
2022-09-23T14:39:03.660Z,4.17
2022-09-23T14:49:27.503Z,4.63
2022-09-23T14:59:53.310Z,4.73
2022-09-23T15:10:23.426Z,4.55
2022-09-23T15:20:52.160Z,5.20
2022-09-23T15:31:16.033Z,5.75
2022-09-23T15:41:37.709Z,3.90
2022-09-23T15:52:02.093Z,7.30
2022-09-23T16:02:24.814Z,6.28
2022-09-23T16:12:48.184Z,8.75
2022-09-23T16:23:34.049Z,4.70
2022-09-23T16:33:57.487Z,11.82
2022-09-23T16:44:18.891Z,16.67
2022-09-23T16:54:43.262Z,15.68
2022-09-23T17:05:05.851Z,18.80
2022-09-23T17:15:29.016Z,19.98
2022-09-23T17:25:51.186Z,25.20
2022-09-23T17:36:15.007Z,14.48
2022-09-23T17:46:36.665Z,12.70
2022-09-23T17:56:59.333Z,16.88
2022-09-23T18:07:20.983Z,15.35
2022-09-23T18:17:47.949Z,18.42
2022-09-23T18:28:09.479Z,25.15
2022-09-23T18:38:33.243Z,39.60
2022-09-23T18:49:12.000Z,23.00
2022-09-23T18:59:34.859Z,40.97
2022-09-23T19:10:01.093Z,39.88
2022-09-23T19:20:24.735Z,53.35
2022-09-23T19:30:46.521Z,61.75
2022-09-23T19:41:10.317Z,51.40
2022-09-23T19:51:33.947Z,36.30
2022-09-23T20:02:00.407Z,30.10
2022-09-23T20:12:21.828Z,34.70
2022-09-23T20:22:44.552Z,37.53
2022-09-23T20:33:05.770Z,24.13
2022-09-23T20:43:29.300Z,22.30
2022-09-23T20:53:52.829Z,27.77
2022-09-23T21:04:16.513Z,22.95
2022-09-23T21:14:39.414Z,28.48
2022-09-23T21:25:27.044Z,31.80
2022-09-23T21:35:45.314Z,26.20
2022-09-23T21:46:11.475Z,24.48
2022-09-23T21:56:35.225Z,24.77
2022-09-23T22:07:00.083Z,29.38
2022-09-23T22:17:21.386Z,21.05
2022-09-23T22:27:57.859Z,20.38
2022-09-23T22:38:20.053Z,19.67
2022-09-23T22:48:43.217Z,20.20
2022-09-23T22:59:06.253Z,20.20
2022-09-23T23:09:29.948Z,22.45
2022-09-23T23:19:51.521Z,20.35
2022-09-23T23:30:14.737Z,23.48
2022-09-23T23:40:38.255Z,22.15
2022-09-23T23:51:02.020Z,21.13
